Time;durP1;ratioP1;P1;durP2;ratioP2;P2;SDS_P1;SDS_P2;PMS_P1;PMS_P2;Temp;Humidity;BMP_temperature;BMP_pressure;BME280_temperature;BME280_humidity;BME280_pressure;Samples;Min_cycle;Max_cycle;Signal;HPM_P1;HPM_P2
2022/04/11 00:01:02;;;;;;;20.58;10.57;;;;;;;1.01;80.54;101797.97;10439721;28;20040;-80
2022/04/11 00:06:02;;;;;;;17.70;10.63;;;;;;;0.92;81.03;101789.28;10410652;28;20039;-81
2022/04/11 00:11:03;;;;;;;14.98;11.18;;;;;;;0.92;81.99;101774.75;10482610;28;20041;-81
2022/04/11 00:16:07;;;;;;;19.17;11.48;;;;;;;0.98;81.81;101777.94;10467069;28;20490;-80
2022/04/11 00:21:07;;;;;;;18.58;10.73;;;;;;;1.06;81.46;101767.50;10481003;28;20036;-81
2022/04/11 00:26:08;;;;;;;17.70;10.85;;;;;;;1.21;80.82;101769.03;10446214;28;20060;-81
2022/04/11 00:31:08;;;;;;;14.23;10.50;;;;;;;1.27;79.66;101759.31;10463423;28;20062;-81
2022/04/11 00:36:09;;;;;;;14.40;10.90;;;;;;;1.38;79.25;101756.91;10460453;28;20013;-81
2022/04/11 00:41:09;;;;;;;22.35;12.38;;;;;;;1.45;79.52;101756.75;10456473;28;20112;-81
2022/04/11 00:46:10;;;;;;;17.02;11.07;;;;;;;1.41;79.25;101754.63;10435601;28;20048;-81
2022/04/11 00:51:17;;;;;;;14.48;11.45;;;;;;;1.51;79.56;101743.53;10457266;28;20083;-81
2022/04/11 00:56:18;;;;;;;17.50;11.18;;;;;;;1.60;79.41;101739.25;10476773;28;20035;-81
2022/04/11 01:01:18;;;;;;;15.38;12.13;;;;;;;1.64;79.67;101725.00;10478972;28;20369;-80
2022/04/11 01:06:19;;;;;;;14.18;10.73;;;;;;;1.73;79.04;101726.78;10462675;28;20549;-80
2022/04/11 01:11:20;;;;;;;13.68;9.40;;;;;;;1.85;79.40;101721.91;10478731;28;20064;-81
2022/04/11 01:16:30;;;;;;;16.02;11.10;;;;;;;1.78;80.25;101731.50;10474029;28;20029;-80
2022/04/11 01:21:31;;;;;;;15.68;10.48;;;;;;;1.72;80.51;101724.06;10397685;28;20100;-81
2022/04/11 01:26:31;;;;;;;21.45;14.90;;;;;;;1.68;80.89;101717.69;10442618;28;20024;-81
2022/04/11 01:31:32;;;;;;;18.25;12.40;;;;;;;1.80;79.68;101711.91;10477666;28;20077;-80
2022/04/11 01:36:32;;;;;;;21.85;13.90;;;;;;;1.91;79.62;101706.09;10456227;28;20111;-81
2022/04/11 01:41:33;;;;;;;16.83;11.27;;;;;;;1.87;79.23;101702.31;10458097;28;20044;-81
2022/04/11 01:46:33;;;;;;;19.15;13.05;;;;;;;1.91;78.53;101706.09;10490691;28;20123;-81
2022/04/11 01:51:34;;;;;;;21.23;12.13;;;;;;;1.86;79.45;101709.91;10437709;28;20033;-81
2022/04/11 01:56:34;;;;;;;20.05;12.65;;;;;;;1.77;80.98;101702.19;10389671;28;20052;-80
2022/04/11 02:01:37;;;;;;;20.25;11.98;;;;;;;1.71;81.42;101702.50;10477030;28;20040;-81
2022/04/11 02:06:38;;;;;;;22.85;12.68;;;;;;;1.60;81.19;101701.47;10472968;28;20032;-81
2022/04/11 02:11:38;;;;;;;17.45;13.18;;;;;;;1.58;82.47;101707.25;10455275;28;20111;-81
2022/04/11 02:16:39;;;;;;;19.60;13.90;;;;;;;1.51;82.61;101710.91;10434566;28;20037;-81
2022/04/11 02:21:39;;;;;;;25.23;13.10;;;;;;;1.43;82.33;101704.97;10458553;28;20115;-81
2022/04/11 02:26:40;;;;;;;22.65;13.57;;;;;;;1.39;81.89;101704.53;10499098;28;20063;-81
2022/04/11 02:31:40;;;;;;;21.13;13.32;;;;;;;1.34;83.11;101704.09;10445768;28;20068;-80
2022/04/11 02:36:41;;;;;;;18.42;13.02;;;;;;;1.26;82.62;101710.16;10476438;28;20136;-80
2022/04/11 02:41:41;;;;;;;16.77;12.05;;;;;;;1.15;82.96;101704.84;10479715;28;20143;-80
2022/04/11 02:46:42;;;;;;;19.15;13.23;;;;;;;1.02;82.39;101704.38;10504479;28;20564;-81
2022/04/11 02:51:42;;;;;;;18.33;12.00;;;;;;;0.75;83.69;101710.28;10463560;28;20029;-80
2022/04/11 02:56:43;;;;;;;18.65;12.18;;;;;;;0.63;84.08;101700.56;10409921;28;20083;-81
2022/04/11 03:01:43;;;;;;;18.58;11.43;;;;;;;0.54;84.24;101689.31;10481402;28;20123;-81
2022/04/11 03:06:44;;;;;;;20.52;13.07;;;;;;;0.50;84.73;101690.66;10408781;28;20570;-80
2022/04/11 03:11:44;;;;;;;17.67;11.82;;;;;;;0.34;84.60;101692.44;10460760;28;20032;-80
2022/04/11 03:16:45;;;;;;;16.65;11.15;;;;;;;0.14;84.68;101691.31;10468344;28;20064;-81
2022/04/11 03:21:45;;;;;;;16.30;11.77;;;;;;;0.14;84.47;101686.16;10484739;28;20057;-81
2022/04/11 03:26:46;;;;;;;17.50;12.70;;;;;;;0.02;84.77;101697.78;10500377;28;20383;-80
2022/04/11 03:31:48;;;;;;;17.33;11.32;;;;;;;-0.14;84.96;101690.16;10463001;28;20056;-81
2022/04/11 03:36:48;;;;;;;15.88;11.60;;;;;;;-0.47;85.85;101695.41;10460765;28;20056;-80
2022/04/11 03:41:49;;;;;;;15.05;11.45;;;;;;;-0.68;85.77;101688.00;10443086;28;20060;-80
2022/04/11 03:46:49;;;;;;;21.80;14.38;;;;;;;-0.75;86.31;101692.50;10498615;28;20072;-80
2022/04/11 03:51:51;;;;;;;18.67;12.43;;;;;;;-0.79;87.37;101692.91;10461786;28;20489;-80
2022/04/11 03:56:51;;;;;;;16.48;11.52;;;;;;;-0.90;87.41;101688.28;10500320;28;20472;-80
2022/04/11 04:01:52;;;;;;;16.08;11.80;;;;;;;-0.97;87.45;101688.38;10443318;28;20052;-80
2022/04/11 04:06:52;;;;;;;22.63;12.35;;;;;;;-1.18;87.73;101690.47;10478929;28;20047;-80
2022/04/11 04:11:53;;;;;;;15.55;10.52;;;;;;;-1.34;87.85;101695.59;10428319;28;20056;-80
2022/04/11 04:16:53;;;;;;;25.20;12.38;;;;;;;-1.45;88.02;101696.06;10459093;28;20064;-79
2022/04/11 04:21:54;;;;;;;18.95;13.30;;;;;;;-1.48;88.77;101699.25;10464857;28;20055;-81
2022/04/11 04:26:54;;;;;;;17.27;11.05;;;;;;;-1.58;88.34;101705.00;10484744;28;20253;-77
2022/04/11 04:31:55;;;;;;;21.02;13.48;;;;;;;-1.46;89.50;101694.25;10421264;28;20025;-79
2022/04/11 04:36:55;;;;;;;22.75;12.70;;;;;;;-1.45;89.73;101688.38;10435753;28;20071;-80
2022/04/11 04:41:56;;;;;;;15.80;11.60;;;;;;;-1.47;90.39;101688.22;10385902;28;20044;-80
2022/04/11 04:46:56;;;;;;;19.75;14.43;;;;;;;-1.41;90.83;101691.47;10436661;28;20076;-80
2022/04/11 04:51:57;;;;;;;21.75;15.32;;;;;;;-1.42;90.54;101691.28;10428557;28;20025;-79
2022/04/11 04:56:58;;;;;;;21.42;13.40;;;;;;;-1.59;89.82;101681.75;10424232;28;20060;-77
2022/04/11 05:01:59;;;;;;;19.38;11.82;;;;;;;-1.68;90.44;101681.63;10441545;28;20037;-77
2022/04/11 05:07:00;;;;;;;21.40;14.50;;;;;;;-1.65;90.28;101688.03;10463436;28;20041;-77
2022/04/11 05:12:00;;;;;;;21.42;13.35;;;;;;;-1.63;91.00;101685.63;10440670;28;20036;-77
2022/04/11 05:17:01;;;;;;;23.15;11.77;;;;;;;-1.54;91.00;101685.72;10440544;28;20491;-78
2022/04/11 05:22:01;;;;;;;17.50;13.05;;;;;;;-1.48;90.91;101682.16;10438902;28;20033;-79
2022/04/11 05:27:02;;;;;;;26.08;14.00;;;;;;;-1.11;92.05;101679.19;10418547;28;20119;-80
2022/04/11 05:32:03;;;;;;;19.75;14.05;;;;;;;-0.45;92.85;101672.41;10394845;28;20013;-80
2022/04/11 05:37:04;;;;;;;14.75;10.57;;;;;;;0.09;92.96;101667.69;10453117;28;20036;-81
2022/04/11 05:42:06;;;;;;;17.38;11.63;;;;;;;0.85;91.27;101670.09;10447647;28;20120;-86
2022/04/11 05:47:06;;;;;;;13.73;9.60;;;;;;;1.64;87.74;101674.28;10435861;28;20080;-80
2022/04/11 05:52:08;;;;;;;11.38;8.02;;;;;;;2.25;81.95;101670.56;10444192;28;20029;-86
2022/04/11 05:57:09;;;;;;;22.37;11.33;;;;;;;3.29;80.44;101661.00;10422945;28;20438;-80
2022/04/11 06:02:10;;;;;;;10.88;6.00;;;;;;;4.72;71.60;101656.03;10439777;28;20025;-85
2022/04/11 06:07:10;;;;;;;8.45;6.78;;;;;;;5.87;66.01;101647.13;10436540;28;20056;-77
2022/04/11 06:12:11;;;;;;;8.43;5.82;;;;;;;7.32;60.59;101652.00;10428838;28;20487;-78
2022/04/11 06:17:11;;;;;;;6.05;4.78;;;;;;;8.56;58.09;101646.81;10437103;28;20132;-81
2022/04/11 06:22:12;;;;;;;6.90;4.45;;;;;;;9.83;51.94;101630.63;10405672;28;20029;-80
2022/04/11 06:27:12;;;;;;;5.82;4.57;;;;;;;10.76;47.90;101631.06;10422851;28;20132;-81
2022/04/11 06:32:14;;;;;;;5.78;3.78;;;;;;;11.74;48.70;101637.47;10457840;28;20036;-78
2022/04/11 06:37:14;;;;;;;11.73;4.63;;;;;;;11.92;46.05;101630.53;10463646;28;20032;-79
2022/04/11 06:42:15;;;;;;;8.13;3.90;;;;;;;12.73;43.86;101627.78;10427630;28;20078;-79
2022/04/11 06:47:15;;;;;;;9.80;4.30;;;;;;;12.98;42.22;101631.66;10400980;28;20072;-79
2022/04/11 06:52:16;;;;;;;5.38;3.70;;;;;;;13.47;39.87;101633.22;10361423;28;20029;-77
2022/04/11 06:57:16;;;;;;;6.70;4.68;;;;;;;13.35;40.55;101625.59;10401295;28;20056;-78
2022/04/11 07:02:17;;;;;;;7.50;4.07;;;;;;;13.91;39.86;101623.88;10389560;28;20101;-78
2022/04/11 07:07:18;;;;;;;10.18;3.92;;;;;;;13.55;41.72;101626.59;10369924;28;20079;-77
2022/04/11 07:12:18;;;;;;;5.97;3.95;;;;;;;14.47;38.76;101629.00;10422102;28;20439;-78
2022/04/11 07:17:19;;;;;;;7.28;3.80;;;;;;;14.46;39.46;101631.53;10434019;28;20072;-78
2022/04/11 07:22:21;;;;;;;7.45;3.75;;;;;;;14.83;37.66;101626.19;10454338;28;20118;-76
2022/04/11 07:27:21;;;;;;;;;;;;;;;14.53;39.94;101633.59;10440080;28;20056;-76
2022/04/11 07:32:22;;;;;;;5.13;3.87;;;;;;;15.04;36.99;101627.00;10406173;28;19921;-76
2022/04/11 07:37:22;;;;;;;7.80;3.20;;;;;;;15.60;36.94;101614.31;10381510;28;20806;-78
2022/04/11 07:42:23;;;;;;;16.73;5.63;;;;;;;15.19;38.74;101617.06;10434467;28;20098;-78
2022/04/11 07:47:23;;;;;;;7.90;3.05;;;;;;;16.46;38.44;101614.81;10498713;28;20070;-77
2022/04/11 07:52:25;;;;;;;7.72;3.00;;;;;;;16.70;35.55;101607.75;10448763;28;20037;-78
2022/04/11 07:57:26;;;;;;;5.75;3.35;;;;;;;16.88;34.47;101594.25;10454215;28;21144;-78
2022/04/11 08:02:26;;;;;;;5.55;2.95;;;;;;;17.39;34.72;101594.13;10459241;28;20121;-78
2022/04/11 08:07:27;;;;;;;3.92;2.30;;;;;;;17.92;32.52;101588.66;10440503;28;20036;-76
2022/04/11 08:12:27;;;;;;;6.63;2.92;;;;;;;18.23;31.82;101578.97;10409408;28;20115;-76
2022/04/11 08:17:28;;;;;;;4.30;3.17;;;;;;;18.21;31.91;101575.38;10411987;28;20047;-76
2022/04/11 08:22:28;;;;;;;4.85;3.08;;;;;;;17.44;32.59;101569.63;10425356;28;20511;-77
2022/04/11 08:27:29;;;;;;;7.05;3.50;;;;;;;18.18;31.95;101570.00;10414405;28;20025;-76
2022/04/11 08:32:46;;;;;;;6.88;2.67;;;;;;;16.84;35.32;101552.72;10416504;28;20063;-79
2022/04/11 08:37:47;;;;;;;4.82;2.63;;;;;;;18.12;33.56;101548.63;10418389;28;20041;-79
2022/04/11 08:42:51;;;;;;;10.18;3.10;;;;;;;18.61;32.07;101543.72;10415456;28;20050;-81
2022/04/11 08:47:54;;;;;;;3.20;2.42;;;;;;;19.49;30.72;101551.13;10473556;28;20400;-79
2022/04/11 08:52:56;;;;;;;6.05;3.25;;;;;;;18.36;30.58;101553.69;10457501;28;20032;-82
2022/04/11 08:57:57;;;;;;;4.57;2.92;;;;;;;18.22;31.00;101542.72;10448691;28;20056;-81
2022/04/11 09:02:58;;;;;;;5.00;3.10;;;;;;;17.98;31.10;101535.88;10455249;28;20061;-82
2022/04/11 09:07:59;;;;;;;8.48;2.88;;;;;;;18.87;32.60;101531.09;10435037;28;20127;-82
2022/04/11 09:13:00;;;;;;;3.45;2.20;;;;;;;19.02;28.16;101537.66;10464434;28;20078;-81
2022/04/11 09:18:01;;;;;;;5.90;2.90;;;;;;;18.84;30.80;101539.00;10413167;28;20113;-85
2022/04/11 09:23:01;;;;;;;4.97;1.85;;;;;;;19.39;29.91;101533.19;10451935;28;20544;-83
2022/04/11 09:28:10;;;;;;;8.73;2.45;;;;;;;18.62;28.61;101532.25;10380393;28;20072;-80
2022/04/11 09:33:10;;;;;;;4.75;2.42;;;;;;;17.74;28.32;101544.00;10410808;28;21032;-77
2022/04/11 09:38:20;;;;;;;7.13;2.67;;;;;;;17.66;29.32;101537.59;10434052;28;20025;-78
2022/04/11 09:43:29;;;;;;;6.13;2.17;;;;;;;18.56;28.50;101514.44;10420141;28;20808;-80
2022/04/11 09:48:32;;;;;;;4.95;2.60;;;;;;;18.04;27.88;101501.63;10414465;28;20482;-76
2022/04/11 09:53:34;;;;;;;11.40;2.13;;;;;;;18.66;29.29;101494.34;10436967;28;20049;-78
2022/04/11 09:58:35;;;;;;;5.95;2.33;;;;;;;18.20;27.88;101464.97;10435157;28;20380;-79
2022/04/11 10:03:36;;;;;;;2.72;1.63;;;;;;;18.41;29.82;101482.25;10437143;28;20059;-79
2022/04/11 10:08:36;;;;;;;4.93;1.85;;;;;;;19.75;26.69;101488.78;10460514;28;20037;-78
2022/04/11 10:13:37;;;;;;;6.47;2.08;;;;;;;20.04;26.41;101483.16;10412103;28;20182;-78
2022/04/11 10:18:38;;;;;;;5.10;3.13;;;;;;;19.97;25.97;101465.31;10419964;28;20124;-79
2022/04/11 10:24:05;;;;;;;3.50;2.40;;;;;;;18.66;26.43;101472.25;10402338;28;20028;-80
2022/04/11 10:29:05;;;;;;;2.70;1.70;;;;;;;19.40;25.91;101467.72;10421469;28;20048;-77
2022/04/11 10:34:06;;;;;;;6.22;3.25;;;;;;;19.67;27.01;101460.31;10397377;28;20561;-78
2022/04/11 10:39:12;;;;;;;4.68;2.90;;;;;;;18.71;29.04;101447.63;10413672;28;20078;-78
2022/04/11 10:44:36;;;;;;;5.72;2.55;;;;;;;18.37;27.59;101454.78;10440773;28;20049;-78
2022/04/11 10:49:49;;;;;;;4.45;2.22;;;;;;;18.24;29.04;101447.38;10410174;28;20044;-78
2022/04/11 10:54:49;;;;;;;5.30;2.33;;;;;;;19.43;28.21;101444.81;10421059;28;20025;-77
2022/04/11 11:00:14;;;;;;;5.35;2.25;;;;;;;18.46;27.55;101435.56;10447605;28;20849;-81
2022/04/11 11:05:24;;;;;;;5.22;2.95;;;;;;;19.42;28.25;101450.97;10420911;28;20497;-80
2022/04/11 11:10:54;;;;;;;5.88;2.88;;;;;;;19.32;28.12;101426.00;10417611;28;20026;-80
2022/04/11 11:15:55;;;;;;;5.05;2.45;;;;;;;18.91;28.57;101433.94;10393452;28;20024;-80
2022/04/11 11:20:56;;;;;;;6.35;2.30;;;;;;;19.14;27.19;101425.63;10402672;28;20771;-82
2022/04/11 11:26:08;;;;;;;6.03;2.40;;;;;;;18.42;28.40;101410.72;10426694;28;20127;-80
2022/04/11 11:31:09;;;;;;;4.70;3.05;;;;;;;18.31;27.82;101383.09;10448363;28;20030;-81
2022/04/11 11:36:09;;;;;;;5.72;2.42;;;;;;;19.76;27.53;101368.41;10390146;28;20396;-81
2022/04/11 11:41:10;;;;;;;5.32;2.53;;;;;;;20.61;26.31;101377.78;10410112;28;20095;-81
2022/04/11 11:46:10;;;;;;;8.38;3.28;;;;;;;20.40;24.90;101351.75;10451825;28;20440;-83
2022/04/11 11:51:11;;;;;;;4.35;1.90;;;;;;;18.93;26.15;101337.66;10478342;28;20149;-80
2022/04/11 11:56:12;;;;;;;7.57;2.17;;;;;;;18.31;27.10;101328.34;10422839;28;20061;-84
2022/04/11 12:01:13;;;;;;;5.55;3.17;;;;;;;18.79;26.85;101342.66;10431696;28;20068;-81
2022/04/11 12:06:22;;;;;;;4.07;2.30;;;;;;;19.52;26.19;101329.94;10438147;28;20022;-81
2022/04/11 12:11:24;;;;;;;6.88;2.70;;;;;;;18.83;27.36;101324.16;10443101;28;20374;-83
2022/04/11 12:16:25;;;;;;;5.10;2.65;;;;;;;19.47;27.78;101307.72;10417814;28;20120;-80
2022/04/11 12:21:36;;;;;;;6.05;2.92;;;;;;;21.03;27.05;101300.31;10403144;28;20033;-80
2022/04/11 12:26:45;;;;;;;5.78;3.50;;;;;;;20.13;28.36;101296.44;10410467;28;20026;-80
2022/04/11 12:31:58;;;;;;;13.18;3.80;;;;;;;19.12;28.12;101302.66;10438520;28;20040;-79
2022/04/11 12:37:01;;;;;;;5.85;3.38;;;;;;;18.93;28.69;101296.97;10408239;28;20584;-78
2022/04/11 12:42:02;;;;;;;8.05;3.53;;;;;;;17.83;28.30;101302.44;10434767;28;20028;-78
2022/04/11 12:47:03;;;;;;;5.95;4.35;;;;;;;19.20;27.16;101295.75;10355830;28;20437;-79
2022/04/11 12:52:05;;;;;;;5.05;3.50;;;;;;;20.44;25.81;101283.59;10381238;28;20034;-77
2022/04/11 12:57:10;;;;;;;7.65;3.17;;;;;;;19.91;25.24;101281.06;10368041;28;20041;-78
2022/04/11 13:02:14;;;;;;;9.40;4.95;;;;;;;20.34;27.12;101286.13;10370967;28;20029;-79
2022/04/11 13:07:25;;;;;;;8.90;3.25;;;;;;;19.58;27.09;101273.41;10364770;28;20046;-80
2022/04/11 13:12:27;;;;;;;8.57;4.05;;;;;;;19.62;27.42;101288.53;10378038;28;20552;-79
2022/04/11 13:22:47;;;;;;;7.40;4.28;;;;;;;21.29;26.33;101250.00;10401266;28;20033;-78
2022/04/11 13:27:48;;;;;;;7.93;4.50;;;;;;;22.12;23.18;101238.22;10395742;28;20072;-80
2022/04/11 13:32:48;;;;;;;6.35;4.15;;;;;;;21.07;25.57;101239.16;10379189;28;20087;-81
2022/04/11 13:37:49;;;;;;;12.70;5.25;;;;;;;20.48;28.24;101235.78;10372365;28;20548;-80
2022/04/11 13:42:50;;;;;;;8.63;3.90;;;;;;;20.55;27.37;101231.47;10362105;28;20126;-81
2022/04/11 13:47:51;;;;;;;7.72;4.00;;;;;;;20.92;26.96;101217.69;10415362;28;20044;-79
2022/04/11 13:52:53;;;;;;;11.05;5.57;;;;;;;19.12;26.96;101212.47;10416499;28;20091;-82
2022/04/11 13:57:53;;;;;;;8.43;3.50;;;;;;;19.28;27.35;101197.72;10445935;28;20031;-80
2022/04/11 14:02:54;;;;;;;9.75;3.67;;;;;;;19.15;27.67;101191.28;10428765;28;20395;-78
2022/04/11 14:07:54;;;;;;;8.55;3.67;;;;;;;18.62;28.55;101185.91;10450131;28;20035;-79
2022/04/11 14:12:55;;;;;;;9.77;4.18;;;;;;;18.75;29.18;101171.13;10474825;28;20261;-79
2022/04/11 14:17:56;;;;;;;11.82;4.97;;;;;;;19.07;29.15;101169.97;10459229;28;20079;-79
2022/04/11 14:22:56;;;;;;;6.70;3.58;;;;;;;19.48;27.13;101158.22;10446696;28;20498;-79
2022/04/11 14:27:57;;;;;;;5.85;3.75;;;;;;;19.58;27.44;101146.88;10456992;28;20131;-82
2022/04/11 14:32:57;;;;;;;4.97;2.92;;;;;;;19.61;28.09;101143.38;10433497;28;20029;-85
2022/04/11 14:37:58;;;;;;;5.78;3.42;;;;;;;20.20;27.49;101141.56;10434484;28;20029;-80
2022/04/11 14:42:59;;;;;;;7.32;4.03;;;;;;;19.73;27.38;101138.25;10445362;28;20493;-80
2022/04/11 14:47:59;;;;;;;6.53;3.95;;;;;;;19.67;28.68;101115.16;10415668;28;20603;-81
2022/04/11 14:53:00;;;;;;;7.82;3.75;;;;;;;19.75;26.50;101114.38;10383065;28;20048;-83
2022/04/11 14:58:00;;;;;;;7.40;3.80;;;;;;;20.47;26.22;101116.16;10396362;28;20571;-83
2022/04/11 15:03:01;;;;;;;6.75;4.38;;;;;;;18.95;27.23;101119.31;10385610;28;20036;-86
2022/04/11 15:08:02;;;;;;;7.43;3.28;;;;;;;18.81;28.55;101106.72;10379836;28;20072;-82
2022/04/11 15:13:03;;;;;;;8.10;3.22;;;;;;;18.49;27.79;101097.28;10353630;28;20056;-80
2022/04/11 15:18:03;;;;;;;10.35;3.03;;;;;;;18.03;29.08;101093.75;10381580;28;20034;-80
2022/04/11 15:23:04;;;;;;;6.57;3.20;;;;;;;17.91;29.52;101100.53;10367698;28;20041;-81
2022/04/11 15:28:05;;;;;;;10.40;4.30;;;;;;;17.12;29.69;101088.19;10354383;28;20045;-81
2022/04/11 15:33:05;;;;;;;6.82;3.15;;;;;;;16.87;31.22;101084.00;10367244;28;20176;-84
2022/04/11 15:38:06;;;;;;;7.00;2.70;;;;;;;16.67;30.92;101075.59;10379424;28;20504;-82
2022/04/11 15:43:06;;;;;;;6.55;2.78;;;;;;;16.28;32.28;101075.44;10410769;28;20174;-81
2022/04/11 15:48:07;;;;;;;7.53;2.95;;;;;;;15.85;33.35;101082.13;10444032;28;20052;-79
2022/04/11 15:53:09;;;;;;;4.38;2.53;;;;;;;15.68;32.89;101076.31;10432921;28;20086;-80
2022/04/11 15:58:11;;;;;;;3.72;2.05;;;;;;;15.30;32.81;101084.84;10395477;28;20121;-78
2022/04/11 16:03:13;;;;;;;5.03;2.70;;;;;;;15.13;33.92;101068.47;10434417;28;20552;-77
2022/04/11 16:08:14;;;;;;;4.50;2.78;;;;;;;14.97;33.86;101065.34;10440463;28;20060;-77
2022/04/11 16:13:14;;;;;;;5.78;3.13;;;;;;;14.82;34.31;101055.22;10441167;28;20528;-77
2022/04/11 16:18:16;;;;;;;9.80;2.80;;;;;;;14.67;34.46;101041.50;10452439;28;20056;-79
2022/04/11 16:23:17;;;;;;;10.98;3.78;;;;;;;14.57;34.19;101040.28;10419769;28;20036;-80
2022/04/11 16:28:18;;;;;;;5.72;2.90;;;;;;;14.45;34.94;101038.13;10422679;28;20067;-78
2022/04/11 16:33:18;;;;;;;6.15;2.67;;;;;;;14.45;34.04;101030.22;10460114;28;20036;-78
2022/04/11 16:38:19;;;;;;;5.85;1.88;;;;;;;14.47;35.04;101030.28;10458005;28;20123;-78
2022/04/11 16:43:19;;;;;;;6.78;2.88;;;;;;;14.47;33.76;101022.38;10433581;28;20065;-79
2022/04/11 16:48:20;;;;;;;7.63;3.33;;;;;;;14.43;33.64;101020.47;10415080;28;20520;-80
2022/04/11 16:53:21;;;;;;;4.25;1.90;;;;;;;14.33;33.80;101017.53;10369812;28;20038;-79
2022/04/11 16:58:22;;;;;;;4.47;2.43;;;;;;;14.28;33.11;101005.06;10363093;28;20037;-80
2022/04/11 17:03:23;;;;;;;6.22;2.30;;;;;;;14.17;34.15;101016.09;10385011;28;20120;-81
2022/04/11 17:08:23;;;;;;;4.00;2.20;;;;;;;14.03;34.52;101012.97;10383820;28;20500;-80
2022/04/11 17:13:24;;;;;;;5.93;2.25;;;;;;;13.94;34.63;101028.44;10366779;28;20025;-78
2022/04/11 17:18:30;;;;;;;6.68;1.95;;;;;;;13.80;33.66;101025.31;10389159;28;20032;-80
2022/04/11 17:23:32;;;;;;;5.43;3.10;;;;;;;13.61;35.16;101024.63;10372319;28;20107;-79
2022/04/11 17:28:32;;;;;;;4.18;1.95;;;;;;;13.43;36.29;101021.28;10372482;28;20171;-79
2022/04/11 17:33:33;;;;;;;4.22;2.67;;;;;;;13.24;36.31;101014.38;10381640;28;20437;-80
2022/04/11 17:38:33;;;;;;;3.88;2.10;;;;;;;13.10;37.34;101012.09;10373508;28;20033;-79
2022/04/11 17:43:34;;;;;;;6.20;3.00;;;;;;;12.97;37.34;101013.34;10370463;28;20080;-79
2022/04/11 17:48:34;;;;;;;6.22;2.17;;;;;;;12.76;37.66;101023.88;10383756;28;20134;-79
2022/04/11 17:53:35;;;;;;;6.22;2.40;;;;;;;12.57;38.70;101032.72;10467249;28;20087;-79
2022/04/11 17:58:36;;;;;;;6.03;3.17;;;;;;;12.29;39.27;101032.44;10418703;28;20033;-79
2022/04/11 18:03:39;;;;;;;4.15;2.10;;;;;;;12.17;39.01;101040.69;10423288;28;20064;-79
2022/04/11 18:08:41;;;;;;;3.50;2.13;;;;;;;11.96;39.49;101045.81;10430035;28;20544;-79
2022/04/11 18:13:42;;;;;;;6.47;1.65;;;;;;;11.63;40.10;101058.31;10422734;28;20041;-80
2022/04/11 18:18:42;;;;;;;5.15;1.85;;;;;;;11.44;41.13;101058.31;10438302;28;20064;-80
2022/04/11 18:23:43;;;;;;;2.33;1.63;;;;;;;11.09;43.10;101068.00;10451144;28;20068;-80
2022/04/11 18:34:06;;;;;;;4.25;1.80;;;;;;;10.47;44.74;101062.34;10419949;28;20033;-80
2022/04/11 18:39:07;;;;;;;5.20;1.85;;;;;;;10.18;45.15;101068.66;10420563;28;20477;-80
2022/04/11 18:44:08;;;;;;;3.95;1.63;;;;;;;9.84;46.70;101071.28;10405559;28;20550;-81
2022/04/11 18:49:09;;;;;;;4.00;2.13;;;;;;;9.80;48.52;101084.06;10393437;28;20033;-79
2022/04/11 18:54:10;;;;;;;4.35;1.85;;;;;;;9.60;48.52;101090.84;10393102;28;20075;-79
2022/04/11 18:59:10;;;;;;;3.17;1.30;;;;;;;9.46;50.13;101095.28;10393819;28;20117;-79
2022/04/11 19:04:11;;;;;;;7.22;2.95;;;;;;;9.11;50.91;101100.34;10379121;28;20119;-78
2022/04/11 19:09:11;;;;;;;3.40;2.35;;;;;;;8.81;50.52;101102.97;10394595;28;20159;-77
2022/04/11 19:14:12;;;;;;;4.85;1.88;;;;;;;8.79;51.49;101102.88;10399239;28;20492;-78
2022/04/11 19:19:16;;;;;;;4.95;2.13;;;;;;;8.84;51.19;101097.00;10413104;28;20125;-77
2022/04/11 19:24:22;;;;;;;4.53;1.75;;;;;;;8.84;51.38;101095.31;10410544;28;20025;-76
2022/04/11 19:29:35;;;;;;;3.70;1.55;;;;;;;8.75;52.47;101098.28;10408553;28;20563;-77
2022/04/11 19:34:43;;;;;;;2.47;1.70;;;;;;;8.52;54.65;101099.53;10397192;28;20053;-77
2022/04/11 19:39:44;;;;;;;5.47;2.10;;;;;;;8.19;54.17;101107.97;10413240;28;20029;-78
2022/04/11 19:44:45;;;;;;;6.05;3.00;;;;;;;8.29;54.53;101092.88;10433142;28;20412;-78
2022/04/11 19:49:50;;;;;;;7.10;4.15;;;;;;;8.49;52.61;101092.41;10442188;28;20033;-77
2022/04/11 19:54:51;;;;;;;7.07;3.75;;;;;;;8.47;53.53;101088.78;10425379;28;20049;-76
2022/04/11 19:59:53;;;;;;;5.55;3.13;;;;;;;8.53;53.21;101085.69;10434149;28;20028;-76
2022/04/11 20:04:54;;;;;;;5.68;2.83;;;;;;;8.65;52.32;101083.81;10433924;28;20029;-77
2022/04/11 20:09:55;;;;;;;3.92;2.85;;;;;;;8.87;51.38;101089.34;10445617;28;20049;-77
2022/04/11 20:14:55;;;;;;;7.65;3.33;;;;;;;8.93;50.44;101084.50;10433098;28;20050;-77
2022/04/11 20:19:56;;;;;;;7.15;3.53;;;;;;;9.19;49.51;101072.94;10409878;28;20030;-77
2022/04/11 20:24:57;;;;;;;6.53;3.47;;;;;;;9.46;48.37;101067.47;10442969;28;20385;-78
2022/04/11 20:29:58;;;;;;;5.15;4.13;;;;;;;9.51;48.91;101073.84;10422443;28;20123;-77
2022/04/11 20:34:58;;;;;;;7.10;2.67;;;;;;;9.61;49.09;101071.75;10415476;28;20107;-77
2022/04/11 20:39:59;;;;;;;5.65;3.22;;;;;;;9.55;48.23;101060.13;10423293;28;20036;-77
2022/04/11 20:45:01;;;;;;;6.15;3.20;;;;;;;9.53;48.72;101055.63;10420552;28;20049;-77
2022/04/11 20:50:06;;;;;;;;;;;;;;;9.47;49.54;101052.69;10435669;28;20037;-77
2022/04/11 21:00:27;;;;;;;4.30;2.38;;;;;;;9.50;48.77;101048.53;10439223;28;20507;-77
2022/04/11 21:05:37;;;;;;;5.47;3.53;;;;;;;9.62;47.91;101048.28;10433410;28;20024;-77
2022/04/11 21:10:38;;;;;;;6.90;3.28;;;;;;;9.71;48.07;101042.69;10403933;28;20033;-77
2022/04/11 21:15:38;;;;;;;7.05;2.45;;;;;;;9.67;47.80;101031.16;10434689;28;20491;-77
2022/04/11 21:20:45;;;;;;;4.40;2.45;;;;;;;9.47;49.61;101030.06;10434212;28;20047;-77
2022/04/11 21:25:45;;;;;;;4.90;2.85;;;;;;;9.44;48.76;101029.91;10408162;28;20037;-77
2022/04/11 21:30:49;;;;;;;8.32;2.40;;;;;;;9.42;48.77;101017.56;10404337;28;20033;-77
2022/04/11 21:35:50;;;;;;;4.68;2.80;;;;;;;9.36;48.40;101016.41;10439858;28;20040;-77
2022/04/11 21:40:51;;;;;;;9.63;3.08;;;;;;;9.33;50.03;101020.59;10402198;28;20507;-77
2022/04/11 21:45:51;;;;;;;3.85;2.35;;;;;;;9.38;48.74;101011.28;10410483;28;20060;-77
2022/04/11 21:50:53;;;;;;;4.18;2.95;;;;;;;9.35;49.36;101014.63;10393584;28;20053;-77
2022/04/11 21:55:54;;;;;;;7.10;3.27;;;;;;;9.22;49.15;101010.44;10400504;28;20024;-77
2022/04/11 22:00:55;;;;;;;5.72;2.95;;;;;;;9.35;48.71;101016.34;10446964;28;20037;-77
2022/04/11 22:05:58;;;;;;;4.40;2.38;;;;;;;9.19;49.15;101015.50;10431570;28;20035;-77
2022/04/11 22:10:59;;;;;;;6.07;3.75;;;;;;;9.25;48.93;101012.31;10413974;28;20040;-77
2022/04/11 22:16:00;;;;;;;3.53;2.15;;;;;;;9.23;50.32;101012.25;10403753;28;20061;-77
2022/04/11 22:21:01;;;;;;;5.25;2.30;;;;;;;8.91;50.72;101015.63;10437343;28;20029;-77
2022/04/11 22:26:02;;;;;;;6.25;2.35;;;;;;;8.77;51.44;101007.94;10420948;28;20044;-77
2022/04/11 22:31:02;;;;;;;5.97;2.50;;;;;;;8.73;51.90;101002.47;10441814;28;20389;-77
2022/04/11 22:36:04;;;;;;;6.00;2.38;;;;;;;8.74;52.73;100992.09;10425746;28;20163;-77
2022/04/11 22:41:05;;;;;;;3.83;2.17;;;;;;;8.66;52.38;100988.16;10423987;28;20104;-77
2022/04/11 22:46:06;;;;;;;6.35;2.97;;;;;;;8.68;51.56;100996.97;10407729;28;20176;-77
2022/04/11 22:51:06;;;;;;;3.92;1.92;;;;;;;8.89;52.19;100993.78;10413713;28;20086;-77
2022/04/11 22:56:06;;;;;;;4.53;1.77;;;;;;;8.73;52.83;100992.03;10389071;28;20053;-77
2022/04/11 23:01:07;;;;;;;6.85;2.28;;;;;;;8.57;53.69;100988.53;10417391;28;20441;-77
2022/04/11 23:06:07;;;;;;;4.53;2.15;;;;;;;8.45;52.96;100973.03;10417610;28;20033;-78
2022/04/11 23:11:08;;;;;;;5.63;2.45;;;;;;;8.33;54.45;100975.81;10415525;28;20017;-78
2022/04/11 23:16:08;;;;;;;4.22;2.58;;;;;;;8.28;54.62;100982.47;10388336;28;20037;-77
2022/04/11 23:21:09;;;;;;;5.80;2.85;;;;;;;8.17;53.72;100975.75;10387628;28;20111;-77